Time;durP1;ratioP1;P1;durP2;ratioP2;P2;SDS_P1;SDS_P2;PMS_P1;PMS_P2;Temp;Humidity;BMP_temperature;BMP_pressure;BME280_temperature;BME280_humidity;BME280_pressure;Samples;Min_cycle;Max_cycle;Signal;HPM_P1;HPM_P2
2023/08/17 00:02:20;;;;;;;6.82;4.90;;;;;;;;;;5112709;28;20031;-78
2023/08/17 00:04:46;;;;;;;7.22;4.90;;;;;;;;;;5112293;28;20028;-78
2023/08/17 00:07:11;;;;;;;6.35;4.70;;;;;;;;;;5112043;28;20015;-78
2023/08/17 00:09:37;;;;;;;7.20;5.03;;;;;;;;;;5112546;28;20020;-78
2023/08/17 00:12:02;;;;;;;6.10;4.82;;;;;;;;;;5107622;28;20024;-78
2023/08/17 00:14:28;;;;;;;6.30;5.00;;;;;;;;;;5103474;28;20028;-78
2023/08/17 00:16:54;;;;;;;10.02;5.13;;;;;;;;;;5109934;28;20516;-78
2023/08/17 00:19:19;;;;;;;8.10;5.07;;;;;;;;;;5110878;28;20036;-78
2023/08/17 00:21:45;;;;;;;8.40;4.90;;;;;;;;;;5110215;28;20018;-78
2023/08/17 00:24:11;;;;;;;8.13;5.20;;;;;;;;;;5111751;28;20034;-78
2023/08/17 00:26:37;;;;;;;8.00;5.20;;;;;;;;;;5079357;28;20434;-78
2023/08/17 00:29:04;;;;;;;9.57;5.35;;;;;;;;;;5091659;28;20073;-78
2023/08/17 00:31:29;;;;;;;8.75;5.20;;;;;;;;;;5110357;28;20028;-79
2023/08/17 00:33:55;;;;;;;8.00;5.30;;;;;;;;;;5109942;28;20488;-79
2023/08/17 00:36:20;;;;;;;9.93;4.88;;;;;;;;;;5110128;28;20530;-78
2023/08/17 00:38:45;;;;;;;8.48;5.03;;;;;;;;;;5110960;28;20040;-78
2023/08/17 00:41:11;;;;;;;8.05;5.15;;;;;;;;;;5117040;28;20035;-78
2023/08/17 00:43:36;;;;;;;9.27;5.20;;;;;;;;;;5111636;28;20198;-78
2023/08/17 00:46:02;;;;;;;8.85;5.25;;;;;;;;;;5110028;28;20451;-78
2023/08/17 00:48:29;;;;;;;10.27;5.25;;;;;;;;;;5114391;28;20031;-78
2023/08/17 00:50:56;;;;;;;10.50;5.40;;;;;;;;;;5099020;28;20019;-79
2023/08/17 00:53:22;;;;;;;8.50;4.95;;;;;;;;;;5110716;28;20024;-79
2023/08/17 00:55:48;;;;;;;7.80;5.13;;;;;;;;;;5108219;28;20028;-78
2023/08/17 00:58:14;;;;;;;7.07;4.88;;;;;;;;;;5112852;28;20083;-78
2023/08/17 01:00:40;;;;;;;6.40;5.10;;;;;;;;;;5116137;28;20031;-78
2023/08/17 01:03:05;;;;;;;6.07;4.75;;;;;;;;;;5119651;28;20030;-78
2023/08/17 01:05:32;;;;;;;9.43;5.00;;;;;;;;;;5111077;28;20020;-78
2023/08/17 01:07:58;;;;;;;8.85;4.85;;;;;;;;;;5109465;28;20012;-78
2023/08/17 01:10:30;;;;;;;11.35;5.40;;;;;;;;;;5111022;28;20536;-78
2023/08/17 01:13:09;;;;;;;10.45;5.38;;;;;;;;;;5091721;28;20023;-78
2023/08/17 01:15:37;;;;;;;6.47;4.88;;;;;;;;;;5110373;28;20432;-78
2023/08/17 01:18:36;;;;;;;11.98;5.00;;;;;;;;;;5092099;28;20016;-77
2023/08/17 01:21:05;;;;;;;13.20;5.30;;;;;;;;;;5115513;28;20544;-78
2023/08/17 01:23:30;;;;;;;9.52;5.13;;;;;;;;;;5113182;28;20185;-78
2023/08/17 01:25:57;;;;;;;8.10;5.05;;;;;;;;;;5121577;28;20076;-78
2023/08/17 01:28:22;;;;;;;7.85;5.07;;;;;;;;;;5119179;28;20129;-78
2023/08/17 01:31:05;;;;;;;8.63;5.05;;;;;;;;;;5110587;28;20024;-78
2023/08/17 01:33:37;;;;;;;9.38;5.40;;;;;;;;;;5106027;28;20098;-78
2023/08/17 01:36:17;;;;;;;9.40;5.88;;;;;;;;;;5117418;28;20100;-78
2023/08/17 01:38:44;;;;;;;9.23;5.30;;;;;;;;;;5121811;28;20055;-78
2023/08/17 01:41:15;;;;;;;9.95;5.50;;;;;;;;;;5121484;28;20023;-79
2023/08/17 01:43:45;;;;;;;8.63;5.07;;;;;;;;;;5119406;28;20046;-78
2023/08/17 01:46:16;;;;;;;8.60;5.40;;;;;;;;;;5115926;28;20098;-79
2023/08/17 01:48:42;;;;;;;9.95;5.50;;;;;;;;;;5121344;28;20323;-79
2023/08/17 01:51:07;;;;;;;7.53;4.88;;;;;;;;;;5121396;28;20315;-79
2023/08/17 01:53:33;;;;;;;7.63;5.28;;;;;;;;;;5121651;28;20341;-79
2023/08/17 01:55:58;;;;;;;10.23;5.55;;;;;;;;;;5121369;28;20019;-79
2023/08/17 01:58:23;;;;;;;10.93;6.05;;;;;;;;;;5118850;28;20023;-79
2023/08/17 02:00:49;;;;;;;7.70;5.60;;;;;;;;;;5121101;28;20027;-79
2023/08/17 02:03:14;;;;;;;9.75;6.10;;;;;;;;;;5116877;28;20028;-79
2023/08/17 02:05:44;;;;;;;8.60;6.07;;;;;;;;;;5120579;28;20262;-79
2023/08/17 02:08:10;;;;;;;10.52;6.47;;;;;;;;;;5120566;28;20030;-79
2023/08/17 02:10:36;;;;;;;9.02;6.22;;;;;;;;;;5120195;28;20305;-79
2023/08/17 02:13:01;;;;;;;8.65;5.97;;;;;;;;;;5118801;28;20019;-79
2023/08/17 02:15:27;;;;;;;10.48;5.88;;;;;;;;;;5119763;28;20331;-79
2023/08/17 02:17:52;;;;;;;8.35;6.07;;;;;;;;;;5119959;28;20057;-79
2023/08/17 02:20:17;;;;;;;9.43;6.22;;;;;;;;;;5120575;28;20080;-79
2023/08/17 02:22:46;;;;;;;11.02;6.95;;;;;;;;;;5120394;28;20016;-79
2023/08/17 02:25:11;;;;;;;8.65;6.47;;;;;;;;;;5120017;28;20125;-80
2023/08/17 02:27:36;;;;;;;12.13;7.03;;;;;;;;;;5120430;28;20023;-80
2023/08/17 02:30:03;;;;;;;8.75;6.10;;;;;;;;;;5104313;28;20016;-79
2023/08/17 02:32:29;;;;;;;14.35;6.40;;;;;;;;;;5110997;28;20020;-79
2023/08/17 02:34:54;;;;;;;10.70;6.70;;;;;;;;;;5107867;28;20024;-79
2023/08/17 02:37:20;;;;;;;10.63;6.65;;;;;;;;;;5112665;28;20044;-79
2023/08/17 02:39:45;;;;;;;9.45;6.55;;;;;;;;;;5114294;28;20186;-79
2023/08/17 02:42:10;;;;;;;10.65;6.85;;;;;;;;;;5113690;28;20097;-79
2023/08/17 02:44:36;;;;;;;10.32;6.47;;;;;;;;;;5095879;28;20039;-80
2023/08/17 02:47:01;;;;;;;11.50;6.57;;;;;;;;;;5107730;28;20020;-80
2023/08/17 02:49:26;;;;;;;14.75;7.07;;;;;;;;;;5125646;28;20257;-79
2023/08/17 02:51:52;;;;;;;11.70;6.90;;;;;;;;;;5125141;28;20238;-80
2023/08/17 02:54:17;;;;;;;12.18;7.80;;;;;;;;;;5125281;28;20107;-80
2023/08/17 02:56:42;;;;;;;12.38;7.65;;;;;;;;;;5124058;28;20019;-80
2023/08/17 02:59:07;;;;;;;10.38;6.97;;;;;;;;;;5103247;28;20068;-80
2023/08/17 03:01:33;;;;;;;14.15;7.20;;;;;;;;;;5111126;28;20145;-79
2023/08/17 03:03:58;;;;;;;11.65;7.75;;;;;;;;;;5094875;28;20418;-79
2023/08/17 03:06:24;;;;;;;11.57;7.20;;;;;;;;;;5113162;28;20051;-79
2023/08/17 03:08:49;;;;;;;12.10;7.90;;;;;;;;;;5091309;28;20073;-80
2023/08/17 03:11:14;;;;;;;11.55;7.90;;;;;;;;;;5118966;28;20015;-82
2023/08/17 03:13:40;;;;;;;12.75;8.40;;;;;;;;;;5122624;28;20038;-81
2023/08/17 03:16:05;;;;;;;13.35;7.97;;;;;;;;;;5123640;28;20027;-82
2023/08/17 03:18:30;;;;;;;13.27;8.57;;;;;;;;;;5123953;28;20023;-82
2023/08/17 03:20:56;;;;;;;13.07;8.60;;;;;;;;;;5123820;28;20051;-82
2023/08/17 03:23:21;;;;;;;12.40;8.73;;;;;;;;;;5105423;28;20020;-81
2023/08/17 03:25:51;;;;;;;15.90;8.65;;;;;;;;;;5123533;28;20331;-81
2023/08/17 03:28:17;;;;;;;12.20;9.02;;;;;;;;;;5123622;28;20029;-80
2023/08/17 03:30:42;;;;;;;12.07;8.38;;;;;;;;;;5123010;28;20302;-80
2023/08/17 03:33:08;;;;;;;13.80;9.20;;;;;;;;;;5123416;28;20189;-81
2023/08/17 03:35:34;;;;;;;14.57;9.05;;;;;;;;;;5123054;28;20103;-81
2023/08/17 03:37:59;;;;;;;13.77;8.95;;;;;;;;;;5115055;28;20208;-81
2023/08/17 03:40:25;;;;;;;13.73;8.77;;;;;;;;;;5122917;28;20031;-81
2023/08/17 03:42:50;;;;;;;12.68;9.07;;;;;;;;;;5123316;28;20300;-82
2023/08/17 03:45:15;;;;;;;13.98;9.50;;;;;;;;;;5115894;28;20103;-81
2023/08/17 03:47:41;;;;;;;14.18;9.00;;;;;;;;;;5115899;28;20089;-79
2023/08/17 03:50:07;;;;;;;18.05;10.00;;;;;;;;;;5115755;28;20027;-77
2023/08/17 03:52:32;;;;;;;14.10;9.85;;;;;;;;;;5121421;28;20023;-83
2023/08/17 03:54:57;;;;;;;14.75;10.32;;;;;;;;;;5118537;28;20020;-83
2023/08/17 03:57:23;;;;;;;16.80;10.10;;;;;;;;;;5118639;28;20039;-82
2023/08/17 03:59:48;;;;;;;20.55;10.80;;;;;;;;;;5123299;28;20027;-83
2023/08/17 04:02:13;;;;;;;14.65;9.88;;;;;;;;;;5094569;28;20042;-82
2023/08/17 04:04:39;;;;;;;14.88;10.32;;;;;;;;;;5112277;28;20306;-83
2023/08/17 04:07:06;;;;;;;17.52;10.23;;;;;;;;;;5121526;28;20402;-92
2023/08/17 04:09:33;;;;;;;13.40;9.60;;;;;;;;;;5121692;28;20028;-79
2023/08/17 04:11:59;;;;;;;14.40;9.68;;;;;;;;;;5114593;28;20031;-80
2023/08/17 04:14:24;;;;;;;16.90;10.60;;;;;;;;;;5119820;28;20092;-80
2023/08/17 04:16:49;;;;;;;15.05;10.40;;;;;;;;;;5114810;28;20035;-80
2023/08/17 04:19:15;;;;;;;15.13;10.10;;;;;;;;;;5109760;28;20061;-79
2023/08/17 04:21:40;;;;;;;20.58;9.77;;;;;;;;;;5121731;28;20054;-80
2023/08/17 04:24:06;;;;;;;16.65;9.98;;;;;;;;;;5120788;28;20030;-80
2023/08/17 04:26:31;;;;;;;16.10;10.65;;;;;;;;;;5123566;28;20039;-81
2023/08/17 04:28:56;;;;;;;16.90;10.65;;;;;;;;;;5117117;28;20435;-81
2023/08/17 04:31:22;;;;;;;17.17;10.25;;;;;;;;;;5119487;28;20051;-80
2023/08/17 04:33:47;;;;;;;15.85;10.25;;;;;;;;;;5117542;28;20024;-79
2023/08/17 04:36:13;;;;;;;16.42;10.77;;;;;;;;;;5106614;28;20040;-80
2023/08/17 04:38:38;;;;;;;15.80;10.15;;;;;;;;;;5112231;28;20032;-80
2023/08/17 04:41:03;;;;;;;17.05;10.57;;;;;;;;;;5113750;28;20107;-81
2023/08/17 04:43:29;;;;;;;16.67;10.50;;;;;;;;;;5111384;28;20024;-80
2023/08/17 04:45:54;;;;;;;17.75;10.10;;;;;;;;;;5111670;28;20023;-80
2023/08/17 04:48:20;;;;;;;17.40;10.60;;;;;;;;;;5114204;28;20055;-81
2023/08/17 04:50:45;;;;;;;18.33;10.52;;;;;;;;;;5122786;28;20314;-80
2023/08/17 04:53:11;;;;;;;14.93;10.30;;;;;;;;;;5112854;28;20024;-81
2023/08/17 04:55:36;;;;;;;18.13;10.35;;;;;;;;;;5117707;28;20019;-80
2023/08/17 04:58:01;;;;;;;16.73;10.32;;;;;;;;;;5109669;28;20319;-80
2023/08/17 05:00:30;;;;;;;17.52;10.55;;;;;;;;;;5109555;28;20050;-81
2023/08/17 05:02:56;;;;;;;19.52;10.70;;;;;;;;;;5109310;28;20276;-80
2023/08/17 05:05:21;;;;;;;17.05;10.35;;;;;;;;;;5117171;28;20028;-80
2023/08/17 05:07:47;;;;;;;21.30;10.82;;;;;;;;;;5119242;28;20028;-81
2023/08/17 05:10:12;;;;;;;19.40;10.48;;;;;;;;;;5120167;28;20034;-82
2023/08/17 05:12:37;;;;;;;19.20;10.27;;;;;;;;;;5115562;28;20088;-80
2023/08/17 05:15:03;;;;;;;18.40;10.60;;;;;;;;;;5118085;28;20066;-81
2023/08/17 05:17:29;;;;;;;17.85;10.48;;;;;;;;;;5097905;28;20039;-82
2023/08/17 05:19:54;;;;;;;17.70;10.90;;;;;;;;;;5115298;28;20063;-79
2023/08/17 05:22:19;;;;;;;17.23;10.18;;;;;;;;;;5113957;28;20028;-79
2023/08/17 05:24:45;;;;;;;20.02;11.45;;;;;;;;;;5113548;28;20094;-79
2023/08/17 05:27:10;;;;;;;18.50;10.98;;;;;;;;;;5121503;28;20026;-79
2023/08/17 05:29:35;;;;;;;17.02;10.43;;;;;;;;;;5117120;28;20051;-78
2023/08/17 05:32:00;;;;;;;16.92;10.68;;;;;;;;;;5119577;28;20261;-80
2023/08/17 05:34:26;;;;;;;17.80;10.68;;;;;;;;;;5113964;28;20308;-79
2023/08/17 05:36:51;;;;;;;20.52;11.35;;;;;;;;;;5118337;28;20354;-78
2023/08/17 05:39:17;;;;;;;21.35;11.18;;;;;;;;;;5112247;28;20377;-79
2023/08/17 05:41:42;;;;;;;18.20;10.50;;;;;;;;;;5097291;28;20035;-79
2023/08/17 05:44:07;;;;;;;17.77;11.07;;;;;;;;;;5103307;28;20024;-79
2023/08/17 05:46:34;;;;;;;21.50;11.07;;;;;;;;;;5120505;28;20018;-79
2023/08/17 05:49:00;;;;;;;24.63;11.85;;;;;;;;;;5118973;28;20111;-79
2023/08/17 05:51:25;;;;;;;30.45;12.00;;;;;;;;;;5121160;28;20275;-79
2023/08/17 05:53:51;;;;;;;22.35;11.88;;;;;;;;;;5120773;28;20015;-80
2023/08/17 05:56:16;;;;;;;30.17;11.98;;;;;;;;;;5116968;28;20078;-80
2023/08/17 05:58:42;;;;;;;35.33;12.23;;;;;;;;;;5119071;28;20268;-79
2023/08/17 06:01:08;;;;;;;33.95;12.50;;;;;;;;;;5120188;28;20029;-79
2023/08/17 06:03:35;;;;;;;25.45;12.68;;;;;;;;;;5120446;28;20023;-79
2023/08/17 06:06:01;;;;;;;31.67;12.77;;;;;;;;;;5120343;28;20038;-79
2023/08/17 06:08:26;;;;;;;31.27;12.35;;;;;;;;;;5119787;28;20335;-79
2023/08/17 06:10:52;;;;;;;29.25;12.70;;;;;;;;;;5101160;28;20053;-79
2023/08/17 06:13:18;;;;;;;28.67;13.25;;;;;;;;;;5120502;28;20208;-78
2023/08/17 06:15:43;;;;;;;23.08;13.40;;;;;;;;;;5120470;28;20027;-79
2023/08/17 06:18:08;;;;;;;33.08;13.57;;;;;;;;;;5120676;28;20096;-80
2023/08/17 06:20:34;;;;;;;34.05;12.88;;;;;;;;;;5120813;28;20038;-80
2023/08/17 06:22:59;;;;;;;28.00;12.55;;;;;;;;;;5114584;28;20387;-78
2023/08/17 06:25:25;;;;;;;27.33;12.60;;;;;;;;;;5120490;28;20433;-79
2023/08/17 06:27:51;;;;;;;27.52;11.38;;;;;;;;;;5117095;28;20031;-80
2023/08/17 06:30:17;;;;;;;24.00;11.85;;;;;;;;;;5101637;28;20028;-80
2023/08/17 06:32:43;;;;;;;23.88;11.73;;;;;;;;;;5119485;28;20028;-80
2023/08/17 06:35:08;;;;;;;22.98;12.23;;;;;;;;;;5119285;28;20015;-81
2023/08/17 06:37:34;;;;;;;16.40;11.10;;;;;;;;;;5119568;28;20036;-81
2023/08/17 06:39:59;;;;;;;24.13;11.00;;;;;;;;;;5120264;28;20020;-81
2023/08/17 06:42:24;;;;;;;32.33;12.13;;;;;;;;;;5119973;28;20027;-80
2023/08/17 06:44:50;;;;;;;28.65;12.40;;;;;;;;;;5120170;28;20031;-80
2023/08/17 06:47:15;;;;;;;30.73;12.43;;;;;;;;;;5119115;28;20035;-80
2023/08/17 06:49:41;;;;;;;23.45;13.52;;;;;;;;;;5119591;28;20043;-80
2023/08/17 06:52:06;;;;;;;34.17;13.90;;;;;;;;;;5118997;28;20236;-80
2023/08/17 06:54:35;;;;;;;32.35;13.38;;;;;;;;;;5119691;28;20022;-80
2023/08/17 06:57:00;;;;;;;24.20;12.88;;;;;;;;;;5119386;28;20019;-79
2023/08/17 06:59:26;;;;;;;28.00;12.55;;;;;;;;;;5119373;28;20280;-79
2023/08/17 07:01:52;;;;;;;21.85;12.60;;;;;;;;;;5118452;28;20319;-80
2023/08/17 07:04:17;;;;;;;22.15;13.18;;;;;;;;;;5119887;28;20027;-79
2023/08/17 07:06:43;;;;;;;20.23;12.38;;;;;;;;;;5119108;28;20026;-79
2023/08/17 07:09:09;;;;;;;24.80;12.40;;;;;;;;;;5119381;28;20038;-77
2023/08/17 07:11:34;;;;;;;22.45;12.25;;;;;;;;;;5119449;28;20087;-79
2023/08/17 07:14:00;;;;;;;21.30;13.32;;;;;;;;;;5111051;28;20103;-79
2023/08/17 07:16:25;;;;;;;21.25;13.57;;;;;;;;;;5108504;28;20019;-77
2023/08/17 07:18:50;;;;;;;23.65;13.75;;;;;;;;;;5112709;28;20104;-81
2023/08/17 07:21:16;;;;;;;20.92;13.65;;;;;;;;;;5109979;28;20073;-81
2023/08/17 07:23:44;;;;;;;26.95;13.25;;;;;;;;;;5119044;28;20465;-82
2023/08/17 07:26:09;;;;;;;25.77;13.60;;;;;;;;;;5120835;28;20031;-79
2023/08/17 07:28:35;;;;;;;21.98;13.10;;;;;;;;;;5123487;28;20970;-80
2023/08/17 07:31:00;;;;;;;25.80;15.18;;;;;;;;;;5122213;28;20051;-80
2023/08/17 07:33:26;;;;;;;23.85;14.85;;;;;;;;;;5116366;28;20028;-77
2023/08/17 07:35:53;;;;;;;25.55;14.57;;;;;;;;;;5102037;28;20108;-80
2023/08/17 07:38:18;;;;;;;30.48;15.82;;;;;;;;;;5111732;28;20067;-79
2023/08/17 07:40:44;;;;;;;22.40;15.00;;;;;;;;;;5116497;28;20224;-80
2023/08/17 07:43:09;;;;;;;33.58;15.38;;;;;;;;;;5117784;28;20026;-80
2023/08/17 07:45:34;;;;;;;26.58;14.30;;;;;;;;;;5111039;28;20019;-79
2023/08/17 07:48:00;;;;;;;24.90;15.02;;;;;;;;;;5116520;28;20020;-79
2023/08/17 07:50:25;;;;;;;42.20;15.63;;;;;;;;;;5111493;28;20015;-79
2023/08/17 07:52:50;;;;;;;29.05;14.73;;;;;;;;;;5116269;28;20020;-78
2023/08/17 07:55:16;;;;;;;23.33;13.45;;;;;;;;;;5099253;28;20307;-78
2023/08/17 07:57:41;;;;;;;23.98;13.43;;;;;;;;;;5120519;28;20023;-81
2023/08/17 08:00:07;;;;;;;20.90;12.95;;;;;;;;;;5111303;28;20276;-79
2023/08/17 08:02:32;;;;;;;27.33;13.23;;;;;;;;;;5113820;28;20223;-80
2023/08/17 08:04:58;;;;;;;26.10;14.35;;;;;;;;;;5111459;28;20069;-79
2023/08/17 08:07:23;;;;;;;24.92;13.30;;;;;;;;;;5117647;28;20103;-80
2023/08/17 08:09:49;;;;;;;24.02;13.90;;;;;;;;;;5118671;28;20221;-78
2023/08/17 08:12:14;;;;;;;25.35;14.07;;;;;;;;;;5102271;28;20035;-79
2023/08/17 08:14:39;;;;;;;25.73;13.27;;;;;;;;;;5106878;28;20424;-79
2023/08/17 08:17:05;;;;;;;22.63;13.18;;;;;;;;;;5103219;28;20048;-79
2023/08/17 08:19:32;;;;;;;21.75;13.15;;;;;;;;;;5105128;28;20024;-78
2023/08/17 08:21:57;;;;;;;18.60;12.13;;;;;;;;;;5107883;28;20454;-80
2023/08/17 08:24:23;;;;;;;24.55;12.80;;;;;;;;;;5102336;28;20024;-79
2023/08/17 08:26:48;;;;;;;22.40;12.88;;;;;;;;;;5102761;28;20075;-80
2023/08/17 08:29:14;;;;;;;21.02;12.20;;;;;;;;;;5102187;28;20036;-79
2023/08/17 08:31:39;;;;;;;25.85;12.35;;;;;;;;;;5108825;28;20032;-78
2023/08/17 08:34:05;;;;;;;20.33;12.05;;;;;;;;;;5101795;28;20023;-79
2023/08/17 08:36:30;;;;;;;18.98;12.43;;;;;;;;;;5099470;28;20055;-78
2023/08/17 08:38:55;;;;;;;19.05;12.43;;;;;;;;;;5100938;28;20016;-79
2023/08/17 08:41:22;;;;;;;27.55;11.70;;;;;;;;;;5103095;28;20544;-78
2023/08/17 08:43:47;;;;;;;22.65;11.55;;;;;;;;;;5105027;28;20028;-79
2023/08/17 08:46:16;;;;;;;21.30;13.02;;;;;;;;;;5109049;28;20066;-79
2023/08/17 08:48:41;;;;;;;29.17;12.82;;;;;;;;;;5109852;28;20449;-78
2023/08/17 08:51:09;;;;;;;22.58;12.07;;;;;;;;;;5104624;28;20122;-79
2023/08/17 08:53:38;;;;;;;37.78;12.43;;;;;;;;;;5100771;28;20384;-79
2023/08/17 08:56:04;;;;;;;27.35;12.73;;;;;;;;;;5108544;28;20031;-79
2023/08/17 08:58:31;;;;;;;26.00;12.68;;;;;;;;;;5109165;28;20110;-78
2023/08/17 09:00:58;;;;;;;22.05;12.20;;;;;;;;;;5107046;28;20495;-78
2023/08/17 09:03:25;;;;;;;22.95;12.38;;;;;;;;;;5106265;28;20541;-79
2023/08/17 09:05:51;;;;;;;24.90;12.32;;;;;;;;;;5104392;28;20035;-79
2023/08/17 09:08:22;;;;;;;20.63;11.40;;;;;;;;;;5105750;28;20034;-79
2023/08/17 09:10:48;;;;;;;28.67;11.95;;;;;;;;;;5098991;28;20483;-78
2023/08/17 09:13:14;;;;;;;18.25;11.63;;;;;;;;;;5110059;28;20104;-79
2023/08/17 09:15:39;;;;;;;17.05;11.35;;;;;;;;;;5105509;28;20114;-79
2023/08/17 09:18:07;;;;;;;17.50;11.10;;;;;;;;;;5097882;28;20164;-79
2023/08/17 09:20:39;;;;;;;16.95;11.48;;;;;;;;;;5098753;28;20467;-80
2023/08/17 09:23:04;;;;;;;19.88;11.02;;;;;;;;;;5099193;28;20039;-79
2023/08/17 09:25:31;;;;;;;17.10;10.77;;;;;;;;;;5104800;28;20024;-82
2023/08/17 09:27:57;;;;;;;17.38;11.20;;;;;;;;;;5106885;28;20127;-79
2023/08/17 09:30:23;;;;;;;16.90;10.73;;;;;;;;;;5107650;28;20061;-82
2023/08/17 09:32:49;;;;;;;17.00;11.18;;;;;;;;;;5099960;28;20137;-81
2023/08/17 09:35:15;;;;;;;19.30;11.50;;;;;;;;;;5106754;28;20113;-80
2023/08/17 09:37:40;;;;;;;16.83;10.52;;;;;;;;;;5107976;28;20074;-83
2023/08/17 09:40:06;;;;;;;14.52;9.68;;;;;;;;;;5106664;28;20041;-79
2023/08/17 09:42:34;;;;;;;15.85;10.13;;;;;;;;;;5111096;28;20028;-83
2023/08/17 09:45:01;;;;;;;14.43;10.00;;;;;;;;;;5115441;28;20104;-81
2023/08/17 09:47:26;;;;;;;18.85;10.80;;;;;;;;;;5119254;28;20035;-79
2023/08/17 09:49:53;;;;;;;14.57;9.80;;;;;;;;;;5120308;28;20058;-82
2023/08/17 09:52:22;;;;;;;14.77;9.43;;;;;;;;;;5119551;28;20024;-81
2023/08/17 09:54:47;;;;;;;19.60;10.20;;;;;;;;;;5114895;28;20065;-81
2023/08/17 09:57:14;;;;;;;13.48;9.30;;;;;;;;;;5118596;28;20307;-82
2023/08/17 09:59:40;;;;;;;14.43;8.93;;;;;;;;;;5117709;28;20051;-82
2023/08/17 10:02:18;;;;;;;13.90;8.90;;;;;;;;;;5117596;28;20035;-82
2023/08/17 10:04:46;;;;;;;16.33;8.98;;;;;;;;;;5113387;28;20072;-79
2023/08/17 10:07:12;;;;;;;13.27;8.25;;;;;;;;;;5115293;28;20023;-80
2023/08/17 10:09:43;;;;;;;13.75;8.20;;;;;;;;;;5115732;28;20026;-79
2023/08/17 10:12:16;;;;;;;12.73;8.23;;;;;;;;;;5120599;28;20082;-80
2023/08/17 10:14:49;;;;;;;12.52;8.18;;;;;;;;;;5115228;28;20032;-79
2023/08/17 10:17:31;;;;;;;12.43;8.27;;;;;;;;;;5116020;28;20343;-82
2023/08/17 10:20:00;;;;;;;14.85;8.07;;;;;;;;;;5118378;28;20039;-82
2023/08/17 10:23:04;;;;;;;12.05;8.13;;;;;;;;;;5117580;28;20327;-81
2023/08/17 10:25:29;;;;;;;10.73;7.72;;;;;;;;;;5057458;28;20039;-79
2023/08/17 10:27:55;;;;;;;12.07;8.40;;;;;;;;;;5117467;28;20020;-79
2023/08/17 10:30:20;;;;;;;13.30;8.07;;;;;;;;;;5104669;28;20099;-81
2023/08/17 10:32:47;;;;;;;12.35;8.00;;;;;;;;;;5116582;28;20032;-82
2023/08/17 10:35:13;;;;;;;12.85;8.13;;;;;;;;;;5116424;28;20031;-80
2023/08/17 10:48:28;;;;;;;10.63;8.13;;;;;;;;;;5109190;27;20461;-76
2023/08/17 10:51:02;;;;;;;12.35;7.70;;;;;;;;;;5088533;28;20028;-75
2023/08/17 10:53:34;;;;;;;13.38;8.50;;;;;;;;;;5093522;28;20032;-76
2023/08/17 10:55:59;;;;;;;14.40;8.10;;;;;;;;;;5093845;28;20040;-75
2023/08/17 10:58:25;;;;;;;15.73;7.97;;;;;;;;;;5084979;28;20017;-76
2023/08/17 11:00:55;;;;;;;13.70;8.18;;;;;;;;;;5091501;28;20120;-76
2023/08/17 11:03:22;;;;;;;21.00;8.18;;;;;;;;;;5092194;28;20491;-75
2023/08/17 11:05:56;;;;;;;15.02;8.20;;;;;;;;;;5094382;28;20063;-75
2023/08/17 11:08:31;;;;;;;11.20;7.95;;;;;;;;;;5094943;28;20077;-75
2023/08/17 11:11:07;;;;;;;11.45;7.75;;;;;;;;;;5092796;28;20043;-76
2023/08/17 11:13:37;;;;;;;9.10;6.93;;;;;;;;;;5094557;28;20024;-75
2023/08/17 11:16:04;;;;;;;9.30;7.07;;;;;;;;;;5088509;28;20020;-77
2023/08/17 11:18:31;;;;;;;11.85;7.22;;;;;;;;;;5088512;28;20035;-75
2023/08/17 11:20:57;;;;;;;16.63;7.22;;;;;;;;;;5089659;28;20146;-76
2023/08/17 11:23:29;;;;;;;17.92;7.38;;;;;;;;;;5091370;28;20056;-75
2023/08/17 11:25:54;;;;;;;23.10;7.85;;;;;;;;;;5092351;28;20095;-75
2023/08/17 11:28:21;;;;;;;11.18;7.32;;;;;;;;;;5119925;27;20055;-75
2023/08/17 11:30:58;;;;;;;8.80;7.07;;;;;;;;;;5089369;28;20110;-76
2023/08/17 11:33:26;;;;;;;11.05;6.90;;;;;;;;;;5093071;28;20047;-76
2023/08/17 11:35:54;;;;;;;9.95;7.50;;;;;;;;;;5101274;28;20032;-77
2023/08/17 11:38:19;;;;;;;12.20;7.30;;;;;;;;;;5099314;28;20338;-76
2023/08/17 11:40:45;;;;;;;11.00;7.57;;;;;;;;;;5097416;28;20031;-84
2023/08/17 11:43:11;;;;;;;12.75;7.18;;;;;;;;;;5093496;28;20024;-81
2023/08/17 11:45:36;;;;;;;11.48;7.28;;;;;;;;;;5083909;28;20032;-80
2023/08/17 11:48:03;;;;;;;12.48;7.40;;;;;;;;;;5097843;28;20106;-81
2023/08/17 11:50:28;;;;;;;9.98;7.38;;;;;;;;;;5091699;28;20028;-81
2023/08/17 11:52:54;;;;;;;10.00;7.18;;;;;;;;;;5091486;28;20433;-81
2023/08/17 11:55:20;;;;;;;12.27;6.80;;;;;;;;;;5095936;28;20024;-78
2023/08/17 11:57:46;;;;;;;10.10;7.03;;;;;;;;;;5095140;28;20092;-80
2023/08/17 12:00:17;;;;;;;10.52;7.10;;;;;;;;;;5091630;28;20119;-80
2023/08/17 12:02:43;;;;;;;10.55;6.90;;;;;;;;;;5093578;28;20035;-79
2023/08/17 12:05:09;;;;;;;13.25;7.05;;;;;;;;;;5091994;28;20032;-78
2023/08/17 12:07:35;;;;;;;11.13;7.50;;;;;;;;;;5072343;28;20038;-77
2023/08/17 12:10:03;;;;;;;9.30;7.20;;;;;;;;;;5096444;28;20028;-82
2023/08/17 12:12:29;;;;;;;10.93;7.68;;;;;;;;;;5089513;28;20039;-77
2023/08/17 12:14:54;;;;;;;10.15;7.22;;;;;;;;;;5092030;28;20091;-80
2023/08/17 12:17:20;;;;;;;10.68;7.45;;;;;;;;;;5094138;28;20043;-79
2023/08/17 12:19:50;;;;;;;9.75;7.15;;;;;;;;;;5091108;28;20028;-77
2023/08/17 12:22:16;;;;;;;9.38;6.95;;;;;;;;;;5088003;28;20032;-80
2023/08/17 12:24:42;;;;;;;9.90;6.93;;;;;;;;;;5092327;28;20103;-79
2023/08/17 12:27:07;;;;;;;9.40;7.47;;;;;;;;;;5090084;28;20115;-82
2023/08/17 12:29:33;;;;;;;10.32;6.90;;;;;;;;;;5103775;28;20043;-82
2023/08/17 12:32:01;;;;;;;10.82;7.35;;;;;;;;;;5101408;28;20028;-79
2023/08/17 12:34:26;;;;;;;9.65;6.78;;;;;;;;;;5093328;28;20028;-79
2023/08/17 12:36:51;;;;;;;10.80;7.70;;;;;;;;;;5097025;28;20047;-79
2023/08/17 12:39:17;;;;;;;8.77;7.35;;;;;;;;;;5095928;28;20024;-79
2023/08/17 12:41:42;;;;;;;10.68;6.93;;;;;;;;;;5095704;28;20076;-79
2023/08/17 12:44:13;;;;;;;9.43;6.80;;;;;;;;;;5100512;28;20032;-79
2023/08/17 12:46:39;;;;;;;10.43;6.75;;;;;;;;;;5084916;28;20047;-78
2023/08/17 12:49:05;;;;;;;10.30;6.82;;;;;;;;;;5092259;28;20116;-77
2023/08/17 12:51:30;;;;;;;8.65;6.45;;;;;;;;;;5096840;28;20051;-80
2023/08/17 12:53:56;;;;;;;8.63;6.25;;;;;;;;;;5108824;28;20032;-84
2023/08/17 12:56:21;;;;;;;9.98;6.90;;;;;;;;;;5102434;28;20027;-77
2023/08/17 12:58:47;;;;;;;13.13;6.82;;;;;;;;;;5104005;28;20024;-78
2023/08/17 13:01:13;;;;;;;10.68;6.45;;;;;;;;;;5101427;28;20030;-77
2023/08/17 13:03:39;;;;;;;10.55;6.35;;;;;;;;;;5092975;28;20705;-78
2023/08/17 13:06:04;;;;;;;7.60;5.72;;;;;;;;;;5090583;28;20189;-78
2023/08/17 13:08:30;;;;;;;8.40;5.93;;;;;;;;;;5092276;28;20030;-78
2023/08/17 13:10:55;;;;;;;14.10;6.47;;;;;;;;;;5094139;28;20146;-77
2023/08/17 13:13:21;;;;;;;10.60;6.00;;;;;;;;;;5094043;28;20043;-75
2023/08/17 13:15:46;;;;;;;8.32;5.85;;;;;;;;;;5096912;28;20487;-75
2023/08/17 13:18:11;;;;;;;12.38;6.05;;;;;;;;;;5094431;28;20062;-81
2023/08/17 13:20:38;;;;;;;8.23;5.78;;;;;;;;;;5098065;28;20381;-79
2023/08/17 13:23:04;;;;;;;8.48;5.68;;;;;;;;;;5107944;28;20099;-79
2023/08/17 13:25:29;;;;;;;10.68;5.65;;;;;;;;;;5101779;28;20365;-80
2023/08/17 13:27:54;;;;;;;7.97;5.60;;;;;;;;;;5105850;28;20081;-80
2023/08/17 13:30:20;;;;;;;7.22;5.57;;;;;;;;;;5100558;28;20094;-81
2023/08/17 13:32:45;;;;;;;7.90;5.68;;;;;;;;;;5100960;28;20119;-82
2023/08/17 13:35:11;;;;;;;8.95;5.88;;;;;;;;;;5092174;28;20035;-79
2023/08/17 13:37:37;;;;;;;7.97;5.90;;;;;;;;;;5093660;28;20031;-79
2023/08/17 13:40:03;;;;;;;10.73;5.90;;;;;;;;;;5094992;28;20054;-84
2023/08/17 13:42:28;;;;;;;8.52;5.28;;;;;;;;;;5089951;28;20060;-79
2023/08/17 13:44:53;;;;;;;8.93;6.28;;;;;;;;;;5098052;28;20530;-81
2023/08/17 13:47:19;;;;;;;6.97;5.60;;;;;;;;;;5093630;28;20482;-80
2023/08/17 13:49:45;;;;;;;8.32;6.28;;;;;;;;;;5069970;28;20028;-78
2023/08/17 13:52:10;;;;;;;8.90;6.10;;;;;;;;;;5091412;28;20035;-78
2023/08/17 13:54:36;;;;;;;8.30;6.57;;;;;;;;;;5092639;28;20036;-77
2023/08/17 13:57:01;;;;;;;9.98;5.95;;;;;;;;;;5099207;28;20038;-79
2023/08/17 13:59:26;;;;;;;7.65;6.00;;;;;;;;;;5095234;28;20028;-78
2023/08/17 14:01:52;;;;;;;10.02;6.30;;;;;;;;;;5086949;28;20066;-79
2023/08/17 14:04:18;;;;;;;13.55;6.10;;;;;;;;;;5098664;28;20307;-79
2023/08/17 14:06:43;;;;;;;9.85;6.25;;;;;;;;;;5110308;28;20039;-78
2023/08/17 14:09:09;;;;;;;8.45;6.18;;;;;;;;;;5100248;28;20065;-81
2023/08/17 14:11:34;;;;;;;9.98;6.57;;;;;;;;;;5098330;28;20024;-80
2023/08/17 14:13:59;;;;;;;9.45;6.13;;;;;;;;;;5104133;28;20051;-81
2023/08/17 14:16:25;;;;;;;8.23;6.00;;;;;;;;;;5109542;28;20035;-78
2023/08/17 14:18:50;;;;;;;10.55;6.40;;;;;;;;;;5106373;28;20082;-80
2023/08/17 14:21:16;;;;;;;8.43;6.50;;;;;;;;;;5105457;28;20061;-77
2023/08/17 14:23:41;;;;;;;8.10;6.50;;;;;;;;;;5107704;28;20020;-79
2023/08/17 14:26:07;;;;;;;10.30;6.55;;;;;;;;;;5085931;28;20080;-77
2023/08/17 14:28:32;;;;;;;9.38;6.32;;;;;;;;;;5100154;28;20043;-79
2023/08/17 14:30:57;;;;;;;7.47;5.97;;;;;;;;;;5101776;28;20031;-79
2023/08/17 14:33:23;;;;;;;7.60;5.78;;;;;;;;;;5085520;28;20043;-78
2023/08/17 14:35:48;;;;;;;8.32;6.00;;;;;;;;;;5100207;28;20371;-81